Time;durP1;ratioP1;P1;durP2;ratioP2;P2;SDS_P1;SDS_P2;PMS_P1;PMS_P2;Temp;Humidity;BMP_temperature;BMP_pressure;BME280_temperature;BME280_humidity;BME280_pressure;Samples;Min_cycle;Max_cycle;Signal;HPM_P1;HPM_P2
2024/02/28 00:00:53;;;;;;;;;34.00;26.33;;;;;8.95;93.26;100400.19;114146;242;162093;-53
2024/02/28 00:03:47;;;;;;;;;38.00;30.00;;;;;8.97;93.17;100401.73;114245;244;39673;-51
2024/02/28 00:06:22;;;;;;;;;43.00;32.33;;;;;9.01;93.05;100402.52;114096;241;162263;-51
2024/02/28 00:08:55;;;;;;;;;38.00;28.75;;;;;9.02;93.26;100399.86;114530;243;39228;-54
2024/02/28 00:11:32;;;;;;;;;41.00;30.00;;;;;8.98;93.19;100397.45;114430;241;162823;-54
2024/02/28 00:14:06;;;;;;;;;39.25;28.00;;;;;8.95;93.38;100397.98;114541;243;40591;-53
2024/02/28 00:16:42;;;;;;;;;43.00;33.00;;;;;8.96;93.25;100397.59;114555;243;40640;-51
2024/02/28 00:19:18;;;;;;;;;48.00;35.00;;;;;8.99;93.17;100396.88;114482;242;161140;-51
2024/02/28 00:21:52;;;;;;;;;45.00;34.67;;;;;9.01;93.05;100397.30;114559;243;40391;-52
2024/02/28 00:24:25;;;;;;;;;43.00;32.00;;;;;9.04;93.00;100395.41;114442;241;161499;-52
2024/02/28 00:26:59;;;;;;;;;45.50;33.00;;;;;9.06;92.98;100395.62;114598;243;39680;-53
2024/02/28 00:29:33;;;;;;;;;47.50;35.00;;;;;9.06;93.17;100398.02;114454;241;162388;-53
2024/02/28 00:32:08;;;;;;;;;40.00;30.75;;;;;9.03;93.34;100393.08;114533;242;41653;-51
2024/02/28 00:34:41;;;;;;;;;36.00;27.50;;;;;9.02;93.33;100391.52;114565;242;40261;-51
2024/02/28 00:37:15;;;;;;;;;37.75;29.00;;;;;8.97;93.61;100394.20;114777;241;162024;-53
2024/02/28 00:39:50;;;;;;;;;45.00;34.50;;;;;8.94;93.49;100396.67;114549;242;39646;-53
2024/02/28 00:42:24;;;;;;;;;46.25;34.25;;;;;8.93;93.48;100398.02;114419;239;162297;-53
2024/02/28 00:44:58;;;;;;;;;35.00;26.67;;;;;8.96;93.38;100401.48;114563;241;40174;-53
2024/02/28 00:47:32;;;;;;;;;52.00;37.75;;;;;8.97;93.70;100399.89;114424;242;162848;-52
2024/02/28 00:50:07;;;;;;;;;48.00;35.50;;;;;8.99;93.77;100399.58;114514;243;39663;-52
2024/02/28 00:52:41;;;;;;;;;39.25;30.25;;;;;9.05;93.77;100396.89;114548;242;39296;-53
2024/02/28 00:55:15;;;;;;;;;47.00;33.00;;;;;9.08;93.84;100396.48;114380;240;162044;-53
2024/02/28 00:57:48;;;;;;;;;54.00;39.00;;;;;9.09;93.88;100393.14;114306;243;41189;-53
2024/02/28 01:00:23;;;;;;;;;51.50;37.50;;;;;9.09;93.98;100401.19;114410;241;162011;-53
2024/02/28 01:02:57;;;;;;;;;48.50;37.50;;;;;9.10;94.12;100402.23;114534;242;40211;-53
2024/02/28 01:05:31;;;;;;;;;51.00;38.00;;;;;9.09;94.12;100405.91;114408;241;162549;-53
2024/02/28 01:08:06;;;;;;;;;44.50;32.75;;;;;9.10;94.03;100408.48;114533;243;40062;-54
2024/02/28 01:10:40;;;;;;;;;44.00;31.33;;;;;9.10;94.09;100403.04;114570;242;38985;-54
2024/02/28 01:13:14;;;;;;;;;56.25;39.50;;;;;9.10;94.16;100409.23;114416;241;163002;-53
2024/02/28 01:15:48;;;;;;;;;52.50;39.00;;;;;9.12;94.04;100408.45;114582;242;39301;-53
2024/02/28 01:18:22;;;;;;;;;43.50;32.00;;;;;9.14;94.24;100410.83;114463;241;161982;-51
2024/02/28 01:20:56;;;;;;;;;55.00;39.33;;;;;9.16;94.16;100417.25;114603;243;39891;-50
2024/02/28 01:23:29;;;;;;;;;55.67;40.33;;;;;9.18;94.43;100414.20;114483;241;162171;-52
2024/02/28 01:26:05;;;;;;;;;53.75;39.50;;;;;9.19;94.61;100419.77;114570;242;39818;-52
2024/02/28 01:28:39;;;;;;;;;47.00;35.00;;;;;9.22;94.63;100417.30;114629;242;39966;-53
2024/02/28 01:31:14;;;;;;;;;53.75;40.00;;;;;9.23;94.59;100419.01;114441;241;162951;-54
2024/02/28 01:33:47;;;;;;;;;57.50;42.25;;;;;9.27;94.53;100421.33;114615;242;41613;-52
2024/02/28 01:36:21;;;;;;;;;55.50;43.00;;;;;9.30;94.52;100423.71;114430;241;161304;-50
2024/02/28 01:38:55;;;;;;;;;53.67;40.00;;;;;9.30;94.41;100429.02;114587;243;41000;-51
2024/02/28 01:41:32;;;;;;;;;55.00;38.25;;;;;9.31;94.56;100435.59;114466;241;161565;-51
2024/02/28 01:44:06;;;;;;;;;45.50;34.00;;;;;9.33;94.66;100436.28;114535;242;39896;-54
2024/02/28 01:46:40;;;;;;;;;49.75;36.00;;;;;9.31;94.90;100430.00;114664;243;40030;-54
2024/02/28 01:49:14;;;;;;;;;57.33;42.00;;;;;9.35;94.75;100416.05;114390;241;163408;-55
2024/02/28 01:51:49;;;;;;;;;54.50;40.00;;;;;9.39;94.87;100416.48;114638;242;40377;-55
2024/02/28 01:54:23;;;;;;;;;48.67;35.00;;;;;9.44;95.00;100414.41;114430;242;162441;-55
2024/02/28 01:56:57;;;;;;;;;47.33;35.33;;;;;9.48;95.05;100415.73;114609;243;38346;-55
2024/02/28 01:59:32;;;;;;;;;58.00;42.00;;;;;9.51;95.10;100416.73;114511;241;162195;-55
2024/02/28 02:02:07;;;;;;;;;55.50;42.00;;;;;9.53;95.31;100420.62;114596;242;39543;-53
2024/02/28 02:04:41;;;;;;;;;49.00;35.00;;;;;9.56;95.32;100421.26;114659;242;39757;-53
2024/02/28 02:07:14;;;;;;;;;48.00;36.00;;;;;9.53;95.43;100414.98;114444;241;162211;-55
2024/02/28 02:09:48;;;;;;;;;46.50;36.00;;;;;9.55;95.62;100409.04;114730;242;40525;-55
2024/02/28 02:12:22;;;;;;;;;56.00;41.00;;;;;9.53;95.53;100413.95;114483;241;162041;-52
2024/02/28 02:14:56;;;;;;;;;55.00;39.67;;;;;9.58;95.60;100415.14;114696;242;39997;-52
2024/02/28 02:17:30;;;;;;;;;50.33;39.00;;;;;9.60;95.52;100417.95;114545;241;161592;-51
2024/02/28 02:20:05;;;;;;;;;54.50;40.00;;;;;9.57;95.69;100420.30;114605;242;39280;-52
2024/02/28 02:22:41;;;;;;;;;51.75;38.50;;;;;9.56;95.99;100421.63;114668;242;40788;-55
2024/02/28 02:25:15;;;;;;;;;56.00;42.00;;;;;9.56;95.80;100415.73;114402;242;162492;-55
2024/02/28 02:27:49;;;;;;;;;52.00;36.75;;;;;9.52;96.04;100417.08;114745;242;39551;-56
2024/02/28 02:30:22;;;;;;;;;43.00;33.33;;;;;9.47;96.13;100419.84;114430;242;162373;-56
2024/02/28 02:32:56;;;;;;;;;50.75;38.00;;;;;9.47;96.30;100426.90;114692;242;40615;-55
2024/02/28 02:35:30;;;;;;;;;56.25;42.00;;;;;9.49;96.19;100425.16;114507;241;162285;-56
2024/02/28 02:38:04;;;;;;;;;44.00;33.00;;;;;9.52;96.20;100419.52;114572;242;40177;-55
2024/02/28 02:40:38;;;;;;;;;42.25;31.75;;;;;9.51;96.30;100416.98;114678;242;40952;-55
2024/02/28 02:43:12;;;;;;;;;58.00;42.25;;;;;9.55;96.54;100416.59;114407;241;162151;-53
2024/02/28 02:45:46;;;;;;;;;57.67;43.00;;;;;9.58;96.59;100417.80;114579;243;40867;-52
2024/02/28 02:48:20;;;;;;;;;58.00;41.75;;;;;9.59;96.89;100409.63;114432;241;162298;-56
2024/02/28 02:50:54;;;;;;;;;55.75;42.75;;;;;9.64;96.88;100407.06;114573;243;39897;-55
2024/02/28 02:53:28;;;;;;;;;58.00;43.00;;;;;9.64;96.93;100412.92;114439;232;186474;-53
2024/02/28 02:56:05;;;;;;;;;64.00;45.67;;;;;9.64;97.05;100420.48;114548;242;41082;-54
2024/02/28 02:58:38;;;;;;;;;53.00;38.33;;;;;9.68;97.08;100424.05;114616;242;40193;-51
2024/02/28 03:01:12;;;;;;;;;52.00;38.00;;;;;9.67;97.02;100424.80;114436;242;163241;-50
2024/02/28 03:03:46;;;;;;;;;51.50;38.25;;;;;9.63;97.16;100422.20;114607;242;40612;-51
2024/02/28 03:06:20;;;;;;;;;62.50;44.75;;;;;9.61;97.28;100421.97;114454;241;162483;-50
2024/02/28 03:08:54;;;;;;;;;55.67;39.33;;;;;9.61;97.20;100413.67;114611;242;40790;-54
2024/02/28 03:11:28;;;;;;;;;64.50;45.25;;;;;9.63;97.43;100414.39;114430;241;162509;-56
2024/02/28 03:14:02;;;;;;;;;61.33;44.00;;;;;9.74;97.16;100428.30;114530;242;39836;-53
2024/02/28 03:16:37;;;;;;;;;59.50;45.00;;;;;9.77;97.23;100415.14;114597;243;39690;-53
2024/02/28 03:19:11;;;;;;;;;58.75;44.25;;;;;9.76;97.16;100395.65;114378;240;162099;-52
2024/02/28 03:21:45;;;;;;;;;60.33;45.33;;;;;9.74;97.16;100405.40;114568;242;40110;-52
2024/02/28 03:24:18;;;;;;;;;68.00;47.50;;;;;9.80;97.13;100419.20;114396;241;161316;-52
2024/02/28 03:26:52;;;;;;;;;59.75;44.50;;;;;9.79;96.91;100420.27;114534;243;39572;-53
2024/02/28 03:29:26;;;;;;;;;60.00;43.67;;;;;9.75;97.06;100421.12;114430;241;162721;-52
2024/02/28 03:32:01;;;;;;;;;52.25;37.50;;;;;9.69;97.24;100425.08;114529;242;39539;-52
2024/02/28 03:34:34;;;;;;;;;61.00;45.00;;;;;9.64;97.45;100423.21;114549;243;41437;-52
2024/02/28 03:37:08;;;;;;;;;62.33;44.33;;;;;9.60;97.48;100424.47;114415;241;162178;-51
2024/02/28 03:39:42;;;;;;;;;55.75;39.00;;;;;9.58;97.75;100415.89;114550;242;40306;-53
2024/02/28 03:42:16;;;;;;;;;62.00;47.00;;;;;9.55;97.94;100415.11;114420;241;162069;-51
2024/02/28 03:44:50;;;;;;;;;67.50;48.75;;;;;9.54;97.85;100417.06;114580;243;39759;-50
2024/02/28 03:47:24;;;;;;;;;53.50;39.50;;;;;9.55;97.97;100417.83;114456;239;162119;-53
2024/02/28 03:49:59;;;;;;;;;61.00;46.00;;;;;9.53;98.00;100416.11;114530;242;40629;-53
2024/02/28 03:52:33;;;;;;;;;60.25;46.25;;;;;9.54;97.93;100409.19;114602;242;39200;-52
2024/02/28 03:55:08;;;;;;;;;53.33;40.00;;;;;9.55;97.87;100408.09;114428;242;161820;-52
2024/02/28 03:57:44;;;;;;;;;53.00;38.75;;;;;9.51;97.99;100408.23;114742;243;40276;-50
2024/02/28 04:00:19;;;;;;;;;57.00;43.00;;;;;9.54;97.88;100406.98;114482;239;162043;-50
2024/02/28 04:02:53;;;;;;;;;57.00;42.50;;;;;9.58;97.93;100404.36;114600;242;39390;-52
2024/02/28 04:05:26;;;;;;;;;63.25;48.00;;;;;9.59;97.97;100406.02;114453;241;163330;-53
2024/02/28 04:08:00;;;;;;;;;71.33;52.00;;;;;9.56;97.88;100409.64;114597;242;40249;-50
2024/02/28 04:10:35;;;;;;;;;66.00;49.50;;;;;9.55;98.04;100404.39;114588;242;39812;-51
2024/02/28 04:13:09;;;;;;;;;64.00;46.00;;;;;9.54;98.06;100403.39;113888;241;647843;-50
2024/02/28 04:15:45;;;;;;;;;68.00;49.75;;;;;9.50;98.46;100400.24;114552;243;39196;-50
2024/02/28 04:18:19;;;;;;;;;69.75;50.50;;;;;9.47;98.48;100394.89;114451;239;161601;-51
2024/02/28 04:20:52;;;;;;;;;67.67;50.33;;;;;9.49;98.16;100393.30;114536;242;39612;-50
2024/02/28 04:23:26;;;;;;;;;57.50;42.00;;;;;9.51;98.07;100389.39;114443;242;161930;-51
2024/02/28 04:26:00;;;;;;;;;64.75;44.75;;;;;9.49;98.16;100389.40;114543;242;39650;-50
2024/02/28 04:28:34;;;;;;;;;68.67;50.33;;;;;9.49;98.27;100385.13;114563;242;39401;-51
2024/02/28 04:31:09;;;;;;;;;70.67;52.00;;;;;9.43;98.23;100392.63;114410;241;162146;-50
2024/02/28 04:33:43;;;;;;;;;73.00;51.67;;;;;9.36;98.35;100387.23;114598;242;40979;-51
2024/02/28 04:36:17;;;;;;;;;59.00;43.50;;;;;9.32;98.40;100389.45;114429;241;162240;-51
2024/02/28 04:38:51;;;;;;;;;58.50;43.25;;;;;9.30;98.73;100393.89;114584;243;39928;-51
2024/02/28 04:41:24;;;;;;;;;62.00;43.67;;;;;9.32;98.65;100397.50;114447;241;162407;-51
2024/02/28 04:43:58;;;;;;;;;73.25;51.50;;;;;9.35;98.50;100408.20;114588;242;40074;-50
2024/02/28 04:46:34;;;;;;;;;63.00;45.33;;;;;9.32;98.46;100418.02;114595;242;41693;-51
2024/02/28 04:49:09;;;;;;;;;71.00;51.00;;;;;9.26;98.17;100420.71;114433;239;162680;-51
2024/02/28 04:51:43;;;;;;;;;56.00;41.00;;;;;9.19;98.42;100421.07;114607;242;39710;-51
2024/02/28 04:54:16;;;;;;;;;57.67;44.00;;;;;9.10;98.36;100421.22;114424;242;162137;-51
2024/02/28 04:56:51;;;;;;;;;64.75;47.00;;;;;9.09;98.59;100426.84;114534;243;40676;-54
2024/02/28 04:59:24;;;;;;;;;58.00;42.00;;;;;9.08;98.60;100424.20;114398;239;161613;-54
2024/02/28 05:01:58;;;;;;;;;54.00;40.00;;;;;9.03;98.38;100429.55;114544;242;39819;-53
2024/02/28 05:04:32;;;;;;;;;58.33;43.00;;;;;9.01;98.74;100426.95;114544;242;39572;-53
2024/02/28 05:07:07;;;;;;;;;49.00;36.25;;;;;8.99;98.85;100427.56;114404;241;162310;-50
2024/02/28 05:09:41;;;;;;;;;52.00;40.00;;;;;8.93;98.82;100428.95;114576;242;40484;-50
2024/02/28 05:12:14;;;;;;;;;55.50;42.00;;;;;8.88;98.95;100431.80;114427;241;161988;-50
2024/02/28 05:14:48;;;;;;;;;61.00;41.50;;;;;8.84;99.20;100432.13;114519;242;39237;-50
2024/02/28 05:17:22;;;;;;;;;47.00;34.00;;;;;8.81;99.19;100436.64;114436;239;163152;-54
2024/02/28 05:19:57;;;;;;;;;42.00;32.00;;;;;8.82;99.12;100441.55;114541;242;40319;-54
2024/02/28 05:22:30;;;;;;;;;43.33;33.00;;;;;8.83;99.12;100444.80;114574;242;40872;-53
2024/02/28 05:25:05;;;;;;;;;57.67;42.33;;;;;8.82;99.32;100448.24;114407;241;163339;-53
2024/02/28 05:27:39;;;;;;;;;57.33;41.00;;;;;8.82;99.30;100450.16;114617;242;40557;-50
2024/02/28 05:30:15;;;;;;;;;47.00;36.25;;;;;8.83;99.20;100450.91;114437;239;162398;-50
2024/02/28 05:32:49;;;;;;;;;46.00;34.33;;;;;8.80;99.31;100454.76;114611;242;40288;-54
2024/02/28 05:35:22;;;;;;;;;53.00;40.00;;;;;8.75;99.57;100454.98;114483;241;163060;-54
2024/02/28 05:37:59;;;;;;;;;42.33;33.67;;;;;8.77;99.42;100459.74;114601;243;40401;-50
2024/02/28 05:40:34;;;;;;;;;43.25;33.00;;;;;8.76;99.49;100460.60;114609;243;39243;-50
2024/02/28 05:43:08;;;;;;;;;60.00;42.00;;;;;8.79;99.52;100462.36;114463;239;162305;-54
2024/02/28 05:45:42;;;;;;;;;55.67;41.00;;;;;8.79;99.62;100462.56;114572;242;39646;-54
2024/02/28 05:48:16;;;;;;;;;45.50;34.00;;;;;8.79;99.55;100464.91;114403;241;162600;-53
2024/02/28 05:50:49;;;;;;;;;60.00;43.50;;;;;8.81;99.61;100463.77;114549;243;40170;-52
2024/02/28 05:53:26;;;;;;;;;62.75;44.75;;;;;8.80;99.73;100465.12;114482;239;162581;-53
2024/02/28 05:56:00;;;;;;;;;48.67;35.67;;;;;8.83;99.69;100468.91;114525;242;38966;-53
2024/02/28 05:58:34;;;;;;;;;47.00;34.67;;;;;8.84;99.83;100466.48;114594;242;39468;-51
2024/02/28 06:01:08;;;;;;;;;63.00;45.00;;;;;8.87;99.94;100473.34;114427;241;162741;-50
2024/02/28 06:03:43;;;;;;;;;53.00;38.00;;;;;8.93;99.90;100475.39;114597;242;40124;-52
2024/02/28 06:06:17;;;;;;;;;64.00;45.00;;;;;8.98;99.95;100482.89;114402;239;162288;-51
2024/02/28 06:08:50;;;;;;;;;52.00;37.50;;;;;9.01;99.98;100482.66;114565;242;40703;-54
2024/02/28 06:11:24;;;;;;;;;62.00;44.00;;;;;9.04;99.98;100485.36;114412;241;162159;-54
2024/02/28 06:13:58;;;;;;;;;54.25;41.50;;;;;9.07;99.97;100484.77;114526;243;39278;-50
2024/02/28 06:16:32;;;;;;;;;55.00;39.00;;;;;9.14;100.00;100483.14;114571;243;39918;-50
2024/02/28 06:19:06;;;;;;;;;63.00;46.00;;;;;9.24;99.99;100490.33;114444;239;162510;-53
2024/02/28 06:21:40;;;;;;;;;68.00;49.00;;;;;9.32;99.91;100491.42;114641;242;40204;-53
2024/02/28 06:24:13;;;;;;;;;61.75;46.25;;;;;9.39;99.90;100495.17;114435;241;161499;-54
2024/02/28 06:26:47;;;;;;;;;66.25;47.25;;;;;9.44;99.92;100500.16;114579;243;39578;-52
2024/02/28 06:29:22;;;;;;;;;52.50;39.50;;;;;9.47;99.90;100497.14;114430;239;161598;-51
2024/02/28 06:31:56;;;;;;;;;67.00;47.00;;;;;9.47;99.95;100503.83;114565;242;40135;-54
2024/02/28 06:34:30;;;;;;;;;58.00;40.00;;;;;9.50;99.90;100506.15;114555;242;40373;-54
2024/02/28 06:37:04;;;;;;;;;57.33;42.67;;;;;9.54;99.99;100497.57;114384;241;162619;-51
2024/02/28 06:39:39;;;;;;;;;62.67;46.00;;;;;9.57;100.00;100499.19;114548;243;39334;-51
2024/02/28 06:42:13;;;;;;;;;61.00;47.00;;;;;9.62;100.00;100501.07;114436;239;162320;-54
2024/02/28 06:44:47;;;;;;;;;70.00;52.00;;;;;9.67;100.00;100505.39;114625;242;39841;-54
2024/02/28 06:47:20;;;;;;;;;77.00;54.00;;;;;9.74;100.00;100509.23;114432;241;162446;-51
2024/02/28 06:49:54;;;;;;;;;72.50;51.50;;;;;9.80;100.00;100508.65;114515;243;41172;-51
2024/02/28 06:52:28;;;;;;;;;62.67;45.00;;;;;9.85;100.00;100513.80;114572;243;40553;-54
2024/02/28 06:55:06;;;;;;;;;64.67;46.67;;;;;9.90;100.00;100514.08;114427;239;162406;-54
2024/02/28 06:57:41;;;;;;;;;76.00;53.67;;;;;9.98;100.00;100514.17;114347;242;39321;-51
2024/02/28 07:00:18;;;;;;;;;68.25;49.00;;;;;10.05;100.00;100511.42;114486;241;162428;-51
2024/02/28 07:02:53;;;;;;;;;79.75;59.00;;;;;10.11;100.00;100512.13;114571;243;40283;-51
2024/02/28 07:05:27;;;;;;;;;78.25;59.00;;;;;10.21;100.00;100517.61;114430;242;163646;-51
2024/02/28 07:08:02;;;;;;;;;86.67;64.67;;;;;10.36;100.00;100517.80;114547;243;39775;-53
2024/02/28 07:10:35;;;;;;;;;90.00;65.00;;;;;10.38;100.00;100522.77;114579;242;40742;-51
2024/02/28 07:13:09;;;;;;;;;69.00;50.33;;;;;10.45;100.00;100526.16;114403;241;162528;-51
2024/02/28 07:15:43;;;;;;;;;79.50;60.50;;;;;10.53;100.00;100524.53;114570;243;40447;-52
2024/02/28 07:18:17;;;;;;;;;78.33;62.67;;;;;10.62;100.00;100527.20;114456;240;165170;-54
2024/02/28 07:20:51;;;;;;;;;84.25;66.50;;;;;10.67;100.00;100526.73;114586;242;39475;-54
2024/02/28 07:23:26;;;;;;;;;81.50;63.75;;;;;10.69;100.00;100527.38;114465;241;161540;-51
2024/02/28 07:26:00;;;;;;;;;85.00;64.25;;;;;10.66;100.00;100531.91;114570;243;39811;-50
2024/02/28 07:28:35;;;;;;;;;78.00;61.00;;;;;10.67;100.00;100533.17;114627;242;39407;-51
2024/02/28 07:31:15;;;;;;;;;100.33;73.00;;;;;10.75;100.00;100531.49;114413;241;162763;-50
2024/02/28 07:33:50;;;;;;;;;92.33;68.00;;;;;10.79;100.00;100529.95;114613;242;39834;-51
2024/02/28 07:36:24;;;;;;;;;81.33;63.00;;;;;10.86;100.00;100531.48;114292;241;162700;-51
2024/02/28 07:38:59;;;;;;;;;73.67;53.00;;;;;10.99;100.00;100538.67;114567;242;40693;-51
2024/02/28 07:41:34;;;;;;;;;93.75;69.50;;;;;11.07;100.00;100533.32;114407;241;162638;-51
2024/02/28 07:44:09;;;;;;;;;98.00;70.50;;;;;11.16;100.00;100535.19;114265;243;39405;-54
2024/02/28 07:46:45;;;;;;;;;71.75;52.25;;;;;11.19;100.00;100533.69;114356;243;39458;-51
2024/02/28 07:49:19;;;;;;;;;78.00;57.25;;;;;11.29;100.00;100534.46;114382;239;162165;-52
2024/02/28 07:51:53;;;;;;;;;84.00;65.50;;;;;11.32;100.00;100534.38;114559;242;40815;-51
2024/02/28 07:54:27;;;;;;;;;89.33;66.00;;;;;11.42;100.00;100535.77;114415;241;162479;-51
2024/02/28 07:57:02;;;;;;;;;89.75;68.50;;;;;11.52;100.00;100536.25;114577;243;40424;-51
2024/02/28 07:59:39;;;;;;;;;82.75;63.25;;;;;11.64;100.00;100538.55;114456;239;162256;-51
2024/02/28 08:02:13;;;;;;;;;79.75;62.00;;;;;11.68;99.92;100543.80;114576;243;40736;-53
2024/02/28 08:04:47;;;;;;;;;74.25;56.00;;;;;11.67;99.97;100542.83;114575;243;40201;-52
2024/02/28 08:07:21;;;;;;;;;83.25;64.00;;;;;11.67;99.83;100546.15;114437;239;162217;-50
2024/02/28 08:09:55;;;;;;;;;92.00;68.00;;;;;11.67;99.88;100546.69;114583;242;39868;-51
2024/02/28 08:12:29;;;;;;;;;87.50;67.50;;;;;11.64;99.94;100548.45;114453;241;162256;-51
2024/02/28 08:15:04;;;;;;;;;82.00;64.25;;;;;11.65;99.75;100550.63;114559;243;41376;-50
2024/02/28 08:17:38;;;;;;;;;82.50;63.75;;;;;11.67;99.86;100552.65;114453;239;163749;-53
2024/02/28 08:20:13;;;;;;;;;85.50;66.75;;;;;11.68;99.83;100554.42;114566;242;40199;-52
2024/02/28 08:22:47;;;;;;;;;89.00;66.00;;;;;11.74;99.80;100554.99;114591;242;40576;-52
2024/02/28 08:25:21;;;;;;;;;88.33;68.67;;;;;11.81;99.58;100555.73;114382;241;162277;-51
2024/02/28 08:27:55;;;;;;;;;93.67;68.33;;;;;11.80;99.60;100556.20;114565;242;40045;-53
2024/02/28 08:30:29;;;;;;;;;89.00;67.00;;;;;11.87;99.44;100556.17;114405;239;162242;-53
2024/02/28 08:33:02;;;;;;;;;80.50;61.00;;;;;11.88;99.52;100558.10;114544;242;40015;-53
2024/02/28 08:35:37;;;;;;;;;82.75;60.00;;;;;11.90;99.86;100558.61;114414;241;161666;-53
2024/02/28 08:38:10;;;;;;;;;84.67;65.33;;;;;12.01;99.84;100557.71;114566;243;40285;-53
2024/02/28 08:40:45;;;;;;;;;90.75;65.50;;;;;12.10;99.67;100560.27;114569;242;40690;-53
2024/02/28 08:43:19;;;;;;;;;86.00;65.25;;;;;12.13;99.73;100556.63;114424;239;162102;-53
2024/02/28 08:45:54;;;;;;;;;93.33;69.00;;;;;12.26;99.65;100553.89;114592;242;39415;-53
2024/02/28 08:48:27;;;;;;;;;82.00;63.00;;;;;12.34;99.78;100547.95;114430;241;162551;-52
2024/02/28 08:51:01;;;;;;;;;82.50;63.00;;;;;12.43;99.78;100549.48;114572;243;39741;-53
2024/02/28 08:53:35;;;;;;;;;92.75;67.50;;;;;12.57;100.00;100547.77;114458;239;162355;-54
2024/02/28 08:56:10;;;;;;;;;80.75;62.50;;;;;12.79;99.99;100547.48;114572;242;39654;-54
2024/02/28 08:58:44;;;;;;;;;84.75;65.00;;;;;12.91;99.92;100547.60;114612;242;40525;-51
2024/02/28 09:01:21;;;;;;;;;80.50;62.25;;;;;13.02;99.69;100543.76;114425;242;161862;-50
2024/02/28 09:03:55;;;;;;;;;82.50;63.25;;;;;13.07;99.06;100546.20;114273;243;39698;-51
2024/02/28 09:06:29;;;;;;;;;77.00;59.75;;;;;12.97;98.75;100551.18;114440;239;161531;-50
2024/02/28 09:09:03;;;;;;;;;76.50;60.00;;;;;12.92;98.18;100554.11;114571;242;41421;-54
2024/02/28 09:11:37;;;;;;;;;78.00;56.00;;;;;12.71;98.07;100553.83;114410;241;162843;-53
2024/02/28 09:14:11;;;;;;;;;76.67;56.00;;;;;12.64;97.74;100554.53;114519;242;40770;-54
2024/02/28 09:16:45;;;;;;;;;76.00;54.75;;;;;12.56;97.69;100555.48;114576;243;39938;-51
2024/02/28 09:19:19;;;;;;;;;75.00;56.25;;;;;12.54;97.55;100554.22;114776;241;162321;-53
2024/02/28 09:21:53;;;;;;;;;81.67;60.00;;;;;12.60;97.42;100554.14;114535;243;39258;-51
2024/02/28 09:24:27;;;;;;;;;79.25;57.25;;;;;12.56;97.95;100555.48;114616;241;163417;-51
2024/02/28 09:27:01;;;;;;;;;74.50;55.50;;;;;12.61;98.25;100557.08;114555;243;41157;-53
2024/02/28 09:29:35;;;;;;;;;76.75;59.00;;;;;12.80;98.34;100558.39;114389;241;162525;-53
2024/02/28 09:32:10;;;;;;;;;76.00;56.75;;;;;13.00;98.61;100558.75;114440;243;40760;-50
2024/02/28 09:34:43;;;;;;;;;65.00;48.00;;;;;13.15;98.25;100560.98;114566;243;41171;-50
2024/02/28 09:37:18;;;;;;;;;74.75;53.75;;;;;13.12;98.01;100556.58;114446;242;161619;-51
2024/02/28 09:39:52;;;;;;;;;73.50;54.00;;;;;13.18;97.60;100558.44;114598;241;38945;-51
2024/02/28 09:42:26;;;;;;;;;71.00;52.33;;;;;13.15;97.36;100559.81;114264;242;161747;-54
2024/02/28 09:45:02;;;;;;;;;65.50;49.00;;;;;13.02;97.05;100566.48;114529;243;39853;-54
2024/02/28 09:47:36;;;;;;;;;74.00;53.25;;;;;12.97;96.68;100568.37;114493;241;162529;-51
2024/02/28 09:50:12;;;;;;;;;71.00;51.67;;;;;12.90;96.57;100567.05;114554;243;39391;-51
2024/02/28 09:52:46;;;;;;;;;59.00;42.75;;;;;12.87;96.44;100570.90;114590;242;40445;-53
2024/02/28 09:55:20;;;;;;;;;75.00;55.75;;;;;12.88;96.41;100573.74;114420;242;162262;-53
2024/02/28 09:57:55;;;;;;;;;73.25;51.75;;;;;12.85;96.27;100572.68;114600;242;40431;-51
2024/02/28 10:00:30;;;;;;;;;68.00;50.50;;;;;12.85;96.19;100572.73;114212;242;162792;-51
2024/02/28 10:03:06;;;;;;;;;74.00;55.00;;;;;12.90;96.30;100574.38;114239;244;39980;-52
2024/02/28 10:05:40;;;;;;;;;74.00;53.67;;;;;12.90;96.34;100578.50;114167;241;162388;-53
2024/02/28 10:08:15;;;;;;;;;73.67;54.00;;;;;12.91;96.50;100578.39;114462;242;39314;-53
2024/02/28 10:10:55;;;;;;;;;73.25;53.00;;;;;12.89;96.65;100577.59;114565;242;40371;-53
2024/02/28 10:13:29;;;;;;;;;73.75;53.75;;;;;12.94;96.69;100578.73;114289;244;41169;-54
2024/02/28 10:16:03;;;;;;;;;76.50;55.00;;;;;12.96;96.48;100578.38;114235;243;40963;-54
2024/02/28 10:18:37;;;;;;;;;75.75;53.00;;;;;12.97;96.19;100580.52;114178;241;162372;-54
2024/02/28 10:21:12;;;;;;;;;76.75;55.25;;;;;12.93;96.09;100582.95;114546;243;39753;-54
2024/02/28 10:23:46;;;;;;;;;71.33;51.67;;;;;12.81;96.09;100585.58;114444;239;162597;-54
2024/02/28 10:26:20;;;;;;;;;77.00;55.00;;;;;12.73;96.32;100590.11;114660;242;39912;-54
2024/02/28 10:28:55;;;;;;;;;77.75;55.75;;;;;12.76;96.25;100589.27;114741;243;40169;-54
2024/02/28 10:31:33;;;;;;;;;74.33;53.33;;;;;12.76;96.16;100595.81;114313;243;39625;-55
2024/02/28 10:34:09;;;;;;;;;77.50;58.50;;;;;12.73;96.14;100596.38;114713;243;40448;-51
2024/02/28 10:36:45;;;;;;;;;72.75;54.50;;;;;12.66;96.42;100594.37;114478;241;161809;-53
2024/02/28 10:39:20;;;;;;;;;79.00;59.50;;;;;12.65;96.55;100594.56;114671;242;40593;-53
2024/02/28 10:41:56;;;;;;;;;77.50;57.75;;;;;12.64;96.62;100596.52;114468;239;161660;-53
2024/02/28 10:44:33;;;;;;;;;74.50;55.00;;;;;12.69;96.60;100597.27;114576;241;39288;-53
2024/02/28 10:47:09;;;;;;;;;76.25;53.00;;;;;12.67;96.68;100597.12;114450;241;162642;-53
2024/02/28 10:49:44;;;;;;;;;76.67;56.67;;;;;12.73;96.46;100595.83;114527;242;40904;-52
2024/02/28 10:52:22;;;;;;;;;71.50;53.00;;;;;12.66;96.51;100597.96;114585;242;41118;-50
2024/02/28 10:55:00;;;;;;;;;71.75;51.50;;;;;12.66;96.35;100603.59;114436;239;162487;-51
2024/02/28 10:57:37;;;;;;;;;67.50;49.00;;;;;12.66;95.96;100601.47;114541;241;39836;-51
2024/02/28 11:00:16;;;;;;;;;72.00;52.00;;;;;12.61;95.93;100605.95;114422;242;162217;-51
2024/02/28 11:02:51;;;;;;;;;71.00;52.00;;;;;12.47;96.29;100606.27;114501;241;39467;-53
2024/02/28 11:05:24;;;;;;;;;76.00;54.33;;;;;12.37;96.55;100612.40;114440;239;162542;-53
2024/02/28 11:08:01;;;;;;;;;76.33;53.67;;;;;12.30;96.59;100611.27;114551;242;39316;-53
2024/02/28 11:10:37;;;;;;;;;78.75;58.50;;;;;12.34;96.18;100615.81;114516;242;40261;-53
2024/02/28 11:13:11;;;;;;;;;79.00;55.67;;;;;12.28;96.50;100611.41;114409;241;161889;-54
2024/02/28 11:15:45;;;;;;;;;80.00;56.50;;;;;12.35;96.72;100611.39;114584;242;39881;-53
2024/02/28 11:18:20;;;;;;;;;76.67;54.67;;;;;12.40;96.58;100610.60;114431;239;162205;-51
2024/02/28 11:20:55;;;;;;;;;72.67;52.33;;;;;12.39;96.37;100610.47;114586;241;39515;-51
2024/02/28 11:23:36;;;;;;;;;78.50;57.25;;;;;12.46;96.07;100609.85;114492;241;162599;-51
2024/02/28 11:26:10;;;;;;;;;70.33;51.00;;;;;12.49;95.97;100607.88;114549;242;39138;-52
2024/02/28 11:28:44;;;;;;;;;81.00;57.00;;;;;12.59;95.52;100610.71;114589;242;40895;-52
2024/02/28 11:31:18;;;;;;;;;83.33;57.33;;;;;12.63;95.18;100609.23;114421;239;161999;-52
2024/02/28 11:33:52;;;;;;;;;76.25;54.50;;;;;12.57;95.28;100616.33;114612;242;40612;-54
2024/02/28 11:36:26;;;;;;;;;80.00;57.50;;;;;12.51;95.26;100618.73;114429;239;161498;-54
2024/02/28 11:39:01;;;;;;;;;76.25;53.00;;;;;12.41;95.34;100623.11;114563;241;40716;-55
2024/02/28 11:41:35;;;;;;;;;73.00;52.00;;;;;12.37;95.22;100624.86;114437;239;162356;-52